sensor_id;sensor_type;location;lat;lon;timestamp;pressure;altitude;pressure_sealevel;temperature;humidity
2711;BME280;20721;47.402;8.550;2023-03-01T00:00:26;96539;;;2.68;52.51
2711;BME280;20721;47.402;8.550;2023-03-01T00:01:28;96539;;;2.69;52.57
2711;BME280;20721;47.402;8.550;2023-03-01T00:02:27;96532;;;2.68;52.44
2711;BME280;20721;47.402;8.550;2023-03-01T00:03:27;96535;;;2.71;52.55
2711;BME280;20721;47.402;8.550;2023-03-01T00:04:27;96536;;;2.75;52.39
2711;BME280;20721;47.402;8.550;2023-03-01T00:06:27;96534;;;2.76;52.41
2711;BME280;20721;47.402;8.550;2023-03-01T00:07:26;96535;;;2.79;52.27
2711;BME280;20721;47.402;8.550;2023-03-01T00:08:26;96537;;;2.78;52.31
2711;BME280;20721;47.402;8.550;2023-03-01T00:09:26;96531;;;2.80;52.30
2711;BME280;20721;47.402;8.550;2023-03-01T00:10:27;96529;;;2.81;52.29
2711;BME280;20721;47.402;8.550;2023-03-01T00:11:28;96529;;;2.80;52.25
2711;BME280;20721;47.402;8.550;2023-03-01T00:13:26;96529;;;2.81;52.28
2711;BME280;20721;47.402;8.550;2023-03-01T00:14:26;96528;;;2.82;52.22
2711;BME280;20721;47.402;8.550;2023-03-01T00:16:28;96527;;;2.81;52.18
2711;BME280;20721;47.402;8.550;2023-03-01T00:17:27;96530;;;2.75;52.21
2711;BME280;20721;47.402;8.550;2023-03-01T00:18:26;96531;;;2.70;52.52
2711;BME280;20721;47.402;8.550;2023-03-01T00:19:26;96528;;;2.69;52.66
2711;BME280;20721;47.402;8.550;2023-03-01T00:20:26;96527;;;2.72;52.58
2711;BME280;20721;47.402;8.550;2023-03-01T00:21:27;96519;;;2.73;52.65
2711;BME280;20721;47.402;8.550;2023-03-01T00:23:27;96517;;;2.79;52.62
2711;BME280;20721;47.402;8.550;2023-03-01T00:24:27;96518;;;2.82;52.54
2711;BME280;20721;47.402;8.550;2023-03-01T00:25:26;96514;;;2.83;52.40
2711;BME280;20721;47.402;8.550;2023-03-01T00:26:27;96514;;;2.86;52.45
2711;BME280;20721;47.402;8.550;2023-03-01T00:27:26;96511;;;2.89;52.33
2711;BME280;20721;47.402;8.550;2023-03-01T00:28:27;96515;;;2.92;52.23
2711;BME280;20721;47.402;8.550;2023-03-01T00:29:27;96512;;;2.97;52.14
2711;BME280;20721;47.402;8.550;2023-03-01T00:30:27;96507;;;3.00;52.12
2711;BME280;20721;47.402;8.550;2023-03-01T00:31:28;96508;;;3.04;52.02
2711;BME280;20721;47.402;8.550;2023-03-01T00:32:26;96504;;;3.06;51.90
2711;BME280;20721;47.402;8.550;2023-03-01T00:34:27;96509;;;3.01;51.88
2711;BME280;20721;47.402;8.550;2023-03-01T00:35:27;96507;;;2.99;51.98
2711;BME280;20721;47.402;8.550;2023-03-01T00:36:31;96508;;;3.00;52.01
2711;BME280;20721;47.402;8.550;2023-03-01T00:37:27;96511;;;2.95;52.06
2711;BME280;20721;47.402;8.550;2023-03-01T00:38:27;96510;;;2.93;52.11
2711;BME280;20721;47.402;8.550;2023-03-01T00:40:27;96506;;;2.96;52.07
2711;BME280;20721;47.402;8.550;2023-03-01T00:41:26;96506;;;2.98;52.04
2711;BME280;20721;47.402;8.550;2023-03-01T00:42:27;96506;;;3.00;52.04
2711;BME280;20721;47.402;8.550;2023-03-01T00:43:27;96502;;;2.98;52.09
2711;BME280;20721;47.402;8.550;2023-03-01T00:44:28;96505;;;2.99;52.10
2711;BME280;20721;47.402;8.550;2023-03-01T00:46:27;96498;;;2.95;52.03
2711;BME280;20721;47.402;8.550;2023-03-01T00:47:28;96501;;;2.92;52.05
2711;BME280;20721;47.402;8.550;2023-03-01T00:48:27;96500;;;2.93;52.08
2711;BME280;20721;47.402;8.550;2023-03-01T00:49:27;96500;;;2.95;52.09
2711;BME280;20721;47.402;8.550;2023-03-01T00:50:27;96500;;;2.91;52.08
2711;BME280;20721;47.402;8.550;2023-03-01T00:51:27;96499;;;2.84;52.08
2711;BME280;20721;47.402;8.550;2023-03-01T00:52:28;96497;;;2.69;52.46
2711;BME280;20721;47.402;8.550;2023-03-01T00:53:27;96499;;;2.66;52.76
2711;BME280;20721;47.402;8.550;2023-03-01T00:54:27;96497;;;2.70;52.76
2711;BME280;20721;47.402;8.550;2023-03-01T00:55:27;96496;;;2.77;52.59
2711;BME280;20721;47.402;8.550;2023-03-01T00:56:27;96501;;;2.84;52.40
2711;BME280;20721;47.402;8.550;2023-03-01T00:57:26;96501;;;2.91;52.25
2711;BME280;20721;47.402;8.550;2023-03-01T00:58:27;96506;;;2.93;52.07
2711;BME280;20721;47.402;8.550;2023-03-01T00:59:27;96500;;;2.94;52.07
2711;BME280;20721;47.402;8.550;2023-03-01T01:00:27;96502;;;2.92;52.05
2711;BME280;20721;47.402;8.550;2023-03-01T01:01:29;96500;;;2.93;52.05
2711;BME280;20721;47.402;8.550;2023-03-01T01:02:27;96498;;;2.91;52.06
2711;BME280;20721;47.402;8.550;2023-03-01T01:05:27;96493;;;2.89;52.13
2711;BME280;20721;47.402;8.550;2023-03-01T01:06:28;96496;;;2.91;52.24
2711;BME280;20721;47.402;8.550;2023-03-01T01:07:27;96491;;;2.86;52.12
2711;BME280;20721;47.402;8.550;2023-03-01T01:08:27;96492;;;2.85;52.26
2711;BME280;20721;47.402;8.550;2023-03-01T01:09:27;96491;;;2.80;52.37
2711;BME280;20721;47.402;8.550;2023-03-01T01:10:27;96490;;;2.79;52.55
2711;BME280;20721;47.402;8.550;2023-03-01T01:11:27;96485;;;2.81;52.57
2711;BME280;20721;47.402;8.550;2023-03-01T01:12:27;96491;;;2.86;52.45
2711;BME280;20721;47.402;8.550;2023-03-01T01:13:27;96488;;;2.88;52.40
2711;BME280;20721;47.402;8.550;2023-03-01T01:14:27;96486;;;2.91;52.30
2711;BME280;20721;47.402;8.550;2023-03-01T01:15:27;96484;;;2.93;52.29
2711;BME280;20721;47.402;8.550;2023-03-01T01:16:27;96483;;;2.98;52.17
2711;BME280;20721;47.402;8.550;2023-03-01T01:17:27;96480;;;3.02;52.14
2711;BME280;20721;47.402;8.550;2023-03-01T01:18:27;96484;;;3.04;52.05
2711;BME280;20721;47.402;8.550;2023-03-01T01:20:27;96476;;;3.03;52.06
2711;BME280;20721;47.402;8.550;2023-03-01T01:21:27;96475;;;3.05;52.03
2711;BME280;20721;47.402;8.550;2023-03-01T01:22:27;96476;;;3.01;51.96
2711;BME280;20721;47.402;8.550;2023-03-01T01:23:27;96477;;;2.95;52.04
2711;BME280;20721;47.402;8.550;2023-03-01T01:24:27;96478;;;2.91;52.25
2711;BME280;20721;47.402;8.550;2023-03-01T01:25:27;96476;;;2.90;52.32
2711;BME280;20721;47.402;8.550;2023-03-01T01:26:28;96476;;;2.91;52.39
2711;BME280;20721;47.402;8.550;2023-03-01T01:27:27;96475;;;2.92;52.39
2711;BME280;20721;47.402;8.550;2023-03-01T01:30:27;96472;;;2.93;52.43
2711;BME280;20721;47.402;8.550;2023-03-01T01:31:28;96477;;;2.95;52.47
2711;BME280;20721;47.402;8.550;2023-03-01T01:32:27;96473;;;2.97;52.45
2711;BME280;20721;47.402;8.550;2023-03-01T01:33:27;96472;;;2.99;52.36
2711;BME280;20721;47.402;8.550;2023-03-01T01:34:27;96471;;;3.02;52.31
2711;BME280;20721;47.402;8.550;2023-03-01T01:35:27;96466;;;3.03;52.29
2711;BME280;20721;47.402;8.550;2023-03-01T01:36:27;96464;;;3.07;52.33
2711;BME280;20721;47.402;8.550;2023-03-01T01:38:27;96463;;;3.04;52.02
2711;BME280;20721;47.402;8.550;2023-03-01T01:39:27;96462;;;3.02;52.21
2711;BME280;20721;47.402;8.550;2023-03-01T01:40:27;96459;;;3.01;52.24
2711;BME280;20721;47.402;8.550;2023-03-01T01:42:27;96455;;;3.00;52.31
2711;BME280;20721;47.402;8.550;2023-03-01T01:43:29;96454;;;3.02;52.35
2711;BME280;20721;47.402;8.550;2023-03-01T01:44:27;96455;;;3.06;52.25
2711;BME280;20721;47.402;8.550;2023-03-01T01:45:29;96455;;;3.08;52.19
2711;BME280;20721;47.402;8.550;2023-03-01T01:48:29;96463;;;3.13;52.03
2711;BME280;20721;47.402;8.550;2023-03-01T01:49:29;96458;;;3.11;52.13
2711;BME280;20721;47.402;8.550;2023-03-01T01:50:27;96454;;;3.08;52.16
2711;BME280;20721;47.402;8.550;2023-03-01T01:51:28;96455;;;3.07;52.23
2711;BME280;20721;47.402;8.550;2023-03-01T01:52:27;96455;;;3.09;52.21
2711;BME280;20721;47.402;8.550;2023-03-01T01:54:28;96451;;;3.13;52.19
2711;BME280;20721;47.402;8.550;2023-03-01T01:55:27;96452;;;3.17;52.14
2711;BME280;20721;47.402;8.550;2023-03-01T01:56:27;96448;;;3.22;51.99
2711;BME280;20721;47.402;8.550;2023-03-01T01:57:36;96451;;;3.23;51.93
2711;BME280;20721;47.402;8.550;2023-03-01T01:58:27;96450;;;3.16;52.01
2711;BME280;20721;47.402;8.550;2023-03-01T01:59:27;96450;;;3.13;52.05
2711;BME280;20721;47.402;8.550;2023-03-01T02:02:27;96447;;;3.09;52.22
2711;BME280;20721;47.402;8.550;2023-03-01T02:03:30;96446;;;3.10;52.21
2711;BME280;20721;47.402;8.550;2023-03-01T02:04:27;96446;;;3.12;52.21
2711;BME280;20721;47.402;8.550;2023-03-01T02:06:37;96444;;;3.13;52.31
2711;BME280;20721;47.402;8.550;2023-03-01T02:07:27;96440;;;3.14;52.28
2711;BME280;20721;47.402;8.550;2023-03-01T02:08:28;96439;;;3.15;52.14
2711;BME280;20721;47.402;8.550;2023-03-01T02:09:27;96440;;;3.16;52.15
2711;BME280;20721;47.402;8.550;2023-03-01T02:10:27;96440;;;3.13;52.25
2711;BME280;20721;47.402;8.550;2023-03-01T02:11:27;96435;;;3.06;52.24
2711;BME280;20721;47.402;8.550;2023-03-01T02:12:27;96431;;;3.05;52.33
2711;BME280;20721;47.402;8.550;2023-03-01T02:13:27;96433;;;3.04;52.38
2711;BME280;20721;47.402;8.550;2023-03-01T02:14:27;96427;;;3.03;52.38
2711;BME280;20721;47.402;8.550;2023-03-01T02:15:27;96427;;;3.02;52.52
2711;BME280;20721;47.402;8.550;2023-03-01T02:16:27;96426;;;3.03;52.46
2711;BME280;20721;47.402;8.550;2023-03-01T02:17:27;96423;;;3.00;52.45
2711;BME280;20721;47.402;8.550;2023-03-01T02:18:27;96426;;;3.02;52.53
2711;BME280;20721;47.402;8.550;2023-03-01T02:19:31;96423;;;3.03;52.48
2711;BME280;20721;47.402;8.550;2023-03-01T02:20:32;96425;;;3.05;52.48
2711;BME280;20721;47.402;8.550;2023-03-01T02:22:28;96428;;;3.09;52.41
2711;BME280;20721;47.402;8.550;2023-03-01T02:23:27;96428;;;3.14;52.40
2711;BME280;20721;47.402;8.550;2023-03-01T02:24:38;96425;;;3.18;52.22
2711;BME280;20721;47.402;8.550;2023-03-01T02:25:29;96429;;;3.19;52.11
2711;BME280;20721;47.402;8.550;2023-03-01T02:26:45;96429;;;3.17;52.14
2711;BME280;20721;47.402;8.550;2023-03-01T02:27:30;96424;;;3.16;52.25
2711;BME280;20721;47.402;8.550;2023-03-01T02:28:31;96425;;;3.14;52.15
2711;BME280;20721;47.402;8.550;2023-03-01T02:29:27;96425;;;3.13;52.28
2711;BME280;20721;47.402;8.550;2023-03-01T02:30:27;96421;;;3.12;52.35
2711;BME280;20721;47.402;8.550;2023-03-01T02:31:37;96420;;;3.16;52.33
2711;BME280;20721;47.402;8.550;2023-03-01T02:32:27;96416;;;3.18;52.26
2711;BME280;20721;47.402;8.550;2023-03-01T02:33:27;96416;;;3.13;52.27
2711;BME280;20721;47.402;8.550;2023-03-01T02:34:27;96410;;;3.10;52.43
2711;BME280;20721;47.402;8.550;2023-03-01T02:35:27;96408;;;3.11;52.47
2711;BME280;20721;47.402;8.550;2023-03-01T02:36:29;96405;;;2.97;52.62
2711;BME280;20721;47.402;8.550;2023-03-01T02:37:27;96405;;;2.95;52.79
2711;BME280;20721;47.402;8.550;2023-03-01T02:38:27;96403;;;2.97;52.85
2711;BME280;20721;47.402;8.550;2023-03-01T02:39:31;96401;;;2.98;52.82
2711;BME280;20721;47.402;8.550;2023-03-01T02:40:28;96406;;;3.01;52.80
2711;BME280;20721;47.402;8.550;2023-03-01T02:41:27;96404;;;3.06;52.74
2711;BME280;20721;47.402;8.550;2023-03-01T02:42:30;96405;;;3.11;52.71
2711;BME280;20721;47.402;8.550;2023-03-01T02:43:28;96401;;;3.15;52.59
2711;BME280;20721;47.402;8.550;2023-03-01T02:44:27;96403;;;3.17;52.43
2711;BME280;20721;47.402;8.550;2023-03-01T02:45:27;96403;;;3.14;52.52
2711;BME280;20721;47.402;8.550;2023-03-01T02:46:27;96405;;;3.16;52.58
2711;BME280;20721;47.402;8.550;2023-03-01T02:47:27;96401;;;3.19;52.50
2711;BME280;20721;47.402;8.550;2023-03-01T02:48:27;96399;;;3.21;52.48
2711;BME280;20721;47.402;8.550;2023-03-01T02:51:31;96397;;;3.26;52.38
2711;BME280;20721;47.402;8.550;2023-03-01T02:54:29;96393;;;3.28;52.18
2711;BME280;20721;47.402;8.550;2023-03-01T02:55:27;96397;;;3.26;52.16
2711;BME280;20721;47.402;8.550;2023-03-01T02:57:27;96394;;;3.25;52.18
2711;BME280;20721;47.402;8.550;2023-03-01T02:58:27;96397;;;3.27;52.23
2711;BME280;20721;47.402;8.550;2023-03-01T02:59:29;96395;;;3.28;52.18
2711;BME280;20721;47.402;8.550;2023-03-01T03:00:28;96395;;;3.27;52.11
2711;BME280;20721;47.402;8.550;2023-03-01T03:01:36;96392;;;3.23;52.19
2711;BME280;20721;47.402;8.550;2023-03-01T03:02:37;96391;;;3.15;52.21
2711;BME280;20721;47.402;8.550;2023-03-01T03:03:27;96388;;;3.10;52.53
2711;BME280;20721;47.402;8.550;2023-03-01T03:04:27;96390;;;3.04;52.63
2711;BME280;20721;47.402;8.550;2023-03-01T03:05:30;96389;;;3.03;52.68
2711;BME280;20721;47.402;8.550;2023-03-01T03:06:27;96390;;;2.88;52.90
2711;BME280;20721;47.402;8.550;2023-03-01T03:07:27;96389;;;2.86;53.17
2711;BME280;20721;47.402;8.550;2023-03-01T03:08:27;96388;;;2.85;53.27
2711;BME280;20721;47.402;8.550;2023-03-01T03:09:28;96383;;;2.90;53.29
2711;BME280;20721;47.402;8.550;2023-03-01T03:10:28;96384;;;2.93;53.22
2711;BME280;20721;47.402;8.550;2023-03-01T03:11:27;96382;;;2.96;53.08
2711;BME280;20721;47.402;8.550;2023-03-01T03:12:27;96383;;;3.00;53.05
2711;BME280;20721;47.402;8.550;2023-03-01T03:13:28;96382;;;3.03;53.09
2711;BME280;20721;47.402;8.550;2023-03-01T03:14:27;96389;;;3.05;52.91
2711;BME280;20721;47.402;8.550;2023-03-01T03:15:27;96386;;;2.85;52.98
2711;BME280;20721;47.402;8.550;2023-03-01T03:16:29;96383;;;2.81;53.19
2711;BME280;20721;47.402;8.550;2023-03-01T03:17:27;96384;;;2.74;53.40
2711;BME280;20721;47.402;8.550;2023-03-01T03:18:27;96382;;;2.77;53.42
2711;BME280;20721;47.402;8.550;2023-03-01T03:19:27;96378;;;2.84;53.42
2711;BME280;20721;47.402;8.550;2023-03-01T03:20:27;96383;;;2.89;53.21
2711;BME280;20721;47.402;8.550;2023-03-01T03:21:27;96378;;;2.94;53.15
2711;BME280;20721;47.402;8.550;2023-03-01T03:22:28;96375;;;3.00;53.11
2711;BME280;20721;47.402;8.550;2023-03-01T03:23:29;96375;;;3.06;52.98
2711;BME280;20721;47.402;8.550;2023-03-01T03:24:28;96378;;;3.11;52.82
2711;BME280;20721;47.402;8.550;2023-03-01T03:25:27;96374;;;3.15;52.69
2711;BME280;20721;47.402;8.550;2023-03-01T03:26:27;96375;;;3.21;52.67
2711;BME280;20721;47.402;8.550;2023-03-01T03:27:27;96373;;;3.25;52.63
2711;BME280;20721;47.402;8.550;2023-03-01T03:28:27;96368;;;3.28;52.54
2711;BME280;20721;47.402;8.550;2023-03-01T03:30:28;96369;;;3.29;52.39
2711;BME280;20721;47.402;8.550;2023-03-01T03:32:27;96371;;;3.31;52.38
2711;BME280;20721;47.402;8.550;2023-03-01T03:33:27;96368;;;3.33;52.28
2711;BME280;20721;47.402;8.550;2023-03-01T03:34:27;96369;;;3.37;52.22
2711;BME280;20721;47.402;8.550;2023-03-01T03:35:31;96369;;;3.38;52.13
2711;BME280;20721;47.402;8.550;2023-03-01T03:36:27;96370;;;3.33;51.98
2711;BME280;20721;47.402;8.550;2023-03-01T03:37:38;96375;;;3.28;52.27
2711;BME280;20721;47.402;8.550;2023-03-01T03:38:27;96378;;;3.23;52.21
2711;BME280;20721;47.402;8.550;2023-03-01T03:39:27;96379;;;3.19;52.33
2711;BME280;20721;47.402;8.550;2023-03-01T03:40:28;96382;;;3.20;52.40
2711;BME280;20721;47.402;8.550;2023-03-01T03:41:27;96379;;;3.19;52.33
2711;BME280;20721;47.402;8.550;2023-03-01T03:42:27;96378;;;3.18;52.35
2711;BME280;20721;47.402;8.550;2023-03-01T03:43:27;96377;;;3.19;52.48
2711;BME280;20721;47.402;8.550;2023-03-01T03:44:27;96377;;;3.16;52.32
2711;BME280;20721;47.402;8.550;2023-03-01T03:45:27;96375;;;3.09;52.50
2711;BME280;20721;47.402;8.550;2023-03-01T03:46:27;96378;;;3.08;52.70
2711;BME280;20721;47.402;8.550;2023-03-01T03:47:27;96372;;;2.99;52.65
2711;BME280;20721;47.402;8.550;2023-03-01T03:48:27;96376;;;2.93;52.92
2711;BME280;20721;47.402;8.550;2023-03-01T03:49:27;96374;;;2.89;53.05
2711;BME280;20721;47.402;8.550;2023-03-01T03:50:27;96377;;;2.92;53.10
2711;BME280;20721;47.402;8.550;2023-03-01T03:51:27;96377;;;2.96;53.09
2711;BME280;20721;47.402;8.550;2023-03-01T03:52:27;96381;;;2.99;53.02
2711;BME280;20721;47.402;8.550;2023-03-01T03:53:28;96380;;;3.00;52.98
2711;BME280;20721;47.402;8.550;2023-03-01T03:54:27;96378;;;3.05;52.86
2711;BME280;20721;47.402;8.550;2023-03-01T03:55:30;96375;;;3.08;52.76
2711;BME280;20721;47.402;8.550;2023-03-01T03:56:29;96378;;;3.10;52.66
2711;BME280;20721;47.402;8.550;2023-03-01T03:57:27;96376;;;3.14;52.62
2711;BME280;20721;47.402;8.550;2023-03-01T03:58:27;96372;;;3.18;52.52
2711;BME280;20721;47.402;8.550;2023-03-01T03:59:27;96373;;;3.17;52.55
2711;BME280;20721;47.402;8.550;2023-03-01T04:00:27;96368;;;3.21;52.57
2711;BME280;20721;47.402;8.550;2023-03-01T04:01:27;96361;;;3.24;52.47
2711;BME280;20721;47.402;8.550;2023-03-01T04:02:27;96365;;;3.29;52.42
2711;BME280;20721;47.402;8.550;2023-03-01T04:03:27;96365;;;3.34;52.27
2711;BME280;20721;47.402;8.550;2023-03-01T04:04:27;96367;;;3.37;52.18
2711;BME280;20721;47.402;8.550;2023-03-01T04:05:27;96366;;;3.33;52.05
2711;BME280;20721;47.402;8.550;2023-03-01T04:06:27;96366;;;3.32;52.14
2711;BME280;20721;47.402;8.550;2023-03-01T04:07:27;96366;;;3.33;52.17
2711;BME280;20721;47.402;8.550;2023-03-01T04:08:27;96368;;;3.30;52.28
2711;BME280;20721;47.402;8.550;2023-03-01T04:09:27;96368;;;3.31;52.30
2711;BME280;20721;47.402;8.550;2023-03-01T04:10:28;96373;;;3.34;52.17
2711;BME280;20721;47.402;8.550;2023-03-01T04:11:27;96368;;;3.18;52.40
2711;BME280;20721;47.402;8.550;2023-03-01T04:12:27;96368;;;3.16;52.57
2711;BME280;20721;47.402;8.550;2023-03-01T04:14:27;96366;;;3.14;52.55
2711;BME280;20721;47.402;8.550;2023-03-01T04:15:27;96368;;;3.09;52.51
2711;BME280;20721;47.402;8.550;2023-03-01T04:16:27;96372;;;2.96;52.77
2711;BME280;20721;47.402;8.550;2023-03-01T04:17:27;96369;;;2.77;53.23
2711;BME280;20721;47.402;8.550;2023-03-01T04:18:27;96369;;;2.73;53.54
2711;BME280;20721;47.402;8.550;2023-03-01T04:20:29;96364;;;2.66;53.81
2711;BME280;20721;47.402;8.550;2023-03-01T04:21:27;96366;;;2.70;53.90
2711;BME280;20721;47.402;8.550;2023-03-01T04:22:29;96366;;;2.79;53.74
2711;BME280;20721;47.402;8.550;2023-03-01T04:23:27;96361;;;2.87;53.58
2711;BME280;20721;47.402;8.550;2023-03-01T04:24:27;96364;;;2.96;53.46
2711;BME280;20721;47.402;8.550;2023-03-01T04:25:27;96361;;;3.05;53.25
2711;BME280;20721;47.402;8.550;2023-03-01T04:26:27;96362;;;3.08;53.02
2711;BME280;20721;47.402;8.550;2023-03-01T04:27:27;96362;;;3.07;52.96
2711;BME280;20721;47.402;8.550;2023-03-01T04:28:28;96364;;;3.01;53.08
2711;BME280;20721;47.402;8.550;2023-03-01T04:29:27;96361;;;3.00;53.09
2711;BME280;20721;47.402;8.550;2023-03-01T04:30:27;96364;;;2.99;53.09
2711;BME280;20721;47.402;8.550;2023-03-01T04:31:28;96359;;;2.98;53.08
2711;BME280;20721;47.402;8.550;2023-03-01T04:32:27;96361;;;3.00;53.19
2711;BME280;20721;47.402;8.550;2023-03-01T04:33:27;96361;;;2.96;53.12
2711;BME280;20721;47.402;8.550;2023-03-01T04:34:27;96359;;;2.94;53.37
2711;BME280;20721;47.402;8.550;2023-03-01T04:35:27;96357;;;2.96;53.32
2711;BME280;20721;47.402;8.550;2023-03-01T04:36:29;96361;;;2.95;53.32
2711;BME280;20721;47.402;8.550;2023-03-01T04:37:27;96361;;;2.97;53.27
2711;BME280;20721;47.402;8.550;2023-03-01T04:38:27;96360;;;3.01;53.31
2711;BME280;20721;47.402;8.550;2023-03-01T04:39:27;96359;;;3.04;53.26
2711;BME280;20721;47.402;8.550;2023-03-01T04:40:27;96360;;;3.09;53.13
2711;BME280;20721;47.402;8.550;2023-03-01T04:41:27;96358;;;3.13;53.03
2711;BME280;20721;47.402;8.550;2023-03-01T04:42:27;96353;;;3.20;52.99
2711;BME280;20721;47.402;8.550;2023-03-01T04:43:27;96356;;;3.25;52.79
2711;BME280;20721;47.402;8.550;2023-03-01T04:44:27;96353;;;3.29;52.81
2711;BME280;20721;47.402;8.550;2023-03-01T04:45:27;96352;;;3.35;52.62
2711;BME280;20721;47.402;8.550;2023-03-01T04:47:27;96350;;;3.39;52.66
2711;BME280;20721;47.402;8.550;2023-03-01T04:48:27;96350;;;3.37;52.43
2711;BME280;20721;47.402;8.550;2023-03-01T04:49:27;96349;;;3.35;52.41
2711;BME280;20721;47.402;8.550;2023-03-01T04:50:27;96353;;;3.06;52.84
2711;BME280;20721;47.402;8.550;2023-03-01T04:51:27;96352;;;3.01;53.22
2711;BME280;20721;47.402;8.550;2023-03-01T04:53:27;96350;;;3.06;53.34
2711;BME280;20721;47.402;8.550;2023-03-01T04:54:27;96346;;;3.15;53.24
2711;BME280;20721;47.402;8.550;2023-03-01T04:55:27;96346;;;3.10;53.04
2711;BME280;20721;47.402;8.550;2023-03-01T04:56:27;96345;;;3.11;53.14
2711;BME280;20721;47.402;8.550;2023-03-01T04:57:27;96343;;;3.16;53.14
2711;BME280;20721;47.402;8.550;2023-03-01T04:58:28;96347;;;3.22;53.06
2711;BME280;20721;47.402;8.550;2023-03-01T04:59:27;96348;;;3.25;52.84
2711;BME280;20721;47.402;8.550;2023-03-01T05:00:27;96342;;;3.21;52.85
2711;BME280;20721;47.402;8.550;2023-03-01T05:01:27;96345;;;3.20;53.03
2711;BME280;20721;47.402;8.550;2023-03-01T05:03:28;96347;;;3.21;53.06
2711;BME280;20721;47.402;8.550;2023-03-01T05:04:28;96348;;;3.13;53.00
2711;BME280;20721;47.402;8.550;2023-03-01T05:05:28;96349;;;3.04;53.26
2711;BME280;20721;47.402;8.550;2023-03-01T05:07:27;96349;;;3.01;53.26
2711;BME280;20721;47.402;8.550;2023-03-01T05:08:27;96349;;;3.02;53.37
2711;BME280;20721;47.402;8.550;2023-03-01T05:09:27;96348;;;3.01;53.35
2711;BME280;20721;47.402;8.550;2023-03-01T05:10:29;96348;;;2.93;53.52
2711;BME280;20721;47.402;8.550;2023-03-01T05:11:31;96348;;;2.96;53.74
2711;BME280;20721;47.402;8.550;2023-03-01T05:12:27;96344;;;3.04;53.68
2711;BME280;20721;47.402;8.550;2023-03-01T05:13:29;96340;;;3.11;53.48
2711;BME280;20721;47.402;8.550;2023-03-01T05:14:28;96339;;;3.20;53.36
2711;BME280;20721;47.402;8.550;2023-03-01T05:15:28;96337;;;3.24;53.16
2711;BME280;20721;47.402;8.550;2023-03-01T05:16:27;96336;;;3.28;53.02
2711;BME280;20721;47.402;8.550;2023-03-01T05:17:27;96331;;;3.32;52.94
2711;BME280;20721;47.402;8.550;2023-03-01T05:18:28;96336;;;3.27;52.87
2711;BME280;20721;47.402;8.550;2023-03-01T05:19:27;96335;;;3.21;53.04
2711;BME280;20721;47.402;8.550;2023-03-01T05:20:29;96337;;;3.14;53.25
2711;BME280;20721;47.402;8.550;2023-03-01T05:21:27;96331;;;3.18;53.31
2711;BME280;20721;47.402;8.550;2023-03-01T05:22:27;96331;;;3.23;53.31
2711;BME280;20721;47.402;8.550;2023-03-01T05:23:27;96330;;;3.27;53.00
2711;BME280;20721;47.402;8.550;2023-03-01T05:24:27;96324;;;3.18;52.94
2711;BME280;20721;47.402;8.550;2023-03-01T05:25:33;96328;;;3.12;53.28
2711;BME280;20721;47.402;8.550;2023-03-01T05:26:29;96326;;;3.10;53.31
2711;BME280;20721;47.402;8.550;2023-03-01T05:27:27;96321;;;3.09;53.30
2711;BME280;20721;47.402;8.550;2023-03-01T05:28:29;96322;;;3.11;53.42
2711;BME280;20721;47.402;8.550;2023-03-01T05:29:28;96322;;;3.12;53.34
2711;BME280;20721;47.402;8.550;2023-03-01T05:30:27;96321;;;3.06;53.36
2711;BME280;20721;47.402;8.550;2023-03-01T05:31:28;96321;;;3.04;53.46
2711;BME280;20721;47.402;8.550;2023-03-01T05:32:30;96319;;;3.05;53.60
2711;BME280;20721;47.402;8.550;2023-03-01T05:33:27;96319;;;3.07;53.44
2711;BME280;20721;47.402;8.550;2023-03-01T05:34:28;96322;;;2.97;53.51
2711;BME280;20721;47.402;8.550;2023-03-01T05:35:29;96325;;;2.90;53.82
2711;BME280;20721;47.402;8.550;2023-03-01T05:36:27;96324;;;2.86;54.06
2711;BME280;20721;47.402;8.550;2023-03-01T05:38:27;96325;;;2.91;54.14
2711;BME280;20721;47.402;8.550;2023-03-01T05:39:28;96321;;;2.95;54.10
2711;BME280;20721;47.402;8.550;2023-03-01T05:40:29;96325;;;2.93;53.99
2711;BME280;20721;47.402;8.550;2023-03-01T05:42:27;96315;;;2.92;54.13
2711;BME280;20721;47.402;8.550;2023-03-01T05:43:30;96314;;;2.96;54.12
2711;BME280;20721;47.402;8.550;2023-03-01T05:44:28;96314;;;2.97;54.12
2711;BME280;20721;47.402;8.550;2023-03-01T05:45:27;96315;;;2.96;54.11
2711;BME280;20721;47.402;8.550;2023-03-01T05:46:29;96313;;;2.98;54.07
2711;BME280;20721;47.402;8.550;2023-03-01T05:47:27;96307;;;3.06;53.93
2711;BME280;20721;47.402;8.550;2023-03-01T05:48:27;96307;;;3.11;53.84
2711;BME280;20721;47.402;8.550;2023-03-01T05:49:27;96308;;;3.15;53.66
2711;BME280;20721;47.402;8.550;2023-03-01T05:51:29;96303;;;3.17;53.58
2711;BME280;20721;47.402;8.550;2023-03-01T05:52:27;96303;;;3.21;53.52
2711;BME280;20721;47.402;8.550;2023-03-01T05:53:27;96300;;;3.22;53.57
2711;BME280;20721;47.402;8.550;2023-03-01T05:54:27;96303;;;3.16;53.44
2711;BME280;20721;47.402;8.550;2023-03-01T05:55:29;96304;;;2.99;53.75
2711;BME280;20721;47.402;8.550;2023-03-01T05:56:27;96302;;;2.91;54.14
2711;BME280;20721;47.402;8.550;2023-03-01T05:57:28;96302;;;2.95;54.12
2711;BME280;20721;47.402;8.550;2023-03-01T05:58:27;96299;;;3.01;54.05
2711;BME280;20721;47.402;8.550;2023-03-01T05:59:27;96301;;;3.06;53.93
2711;BME280;20721;47.402;8.550;2023-03-01T06:00:27;96300;;;2.88;54.18
2711;BME280;20721;47.402;8.550;2023-03-01T06:01:27;96301;;;2.90;54.22
2711;BME280;20721;47.402;8.550;2023-03-01T06:02:29;96303;;;2.92;54.11
2711;BME280;20721;47.402;8.550;2023-03-01T06:03:27;96300;;;2.90;54.14
2711;BME280;20721;47.402;8.550;2023-03-01T06:04:27;96304;;;2.87;54.22
2711;BME280;20721;47.402;8.550;2023-03-01T06:05:28;96302;;;2.60;54.59
2711;BME280;20721;47.402;8.550;2023-03-01T06:06:29;96302;;;2.54;54.95
2711;BME280;20721;47.402;8.550;2023-03-01T06:07:27;96302;;;2.46;55.29
2711;BME280;20721;47.402;8.550;2023-03-01T06:08:27;96302;;;2.52;55.26
2711;BME280;20721;47.402;8.550;2023-03-01T06:09:27;96301;;;2.30;55.56
2711;BME280;20721;47.402;8.550;2023-03-01T06:10:28;96294;;;2.10;56.40
2711;BME280;20721;47.402;8.550;2023-03-01T06:11:27;96292;;;1.99;56.76
2711;BME280;20721;47.402;8.550;2023-03-01T06:12:30;96292;;;1.98;56.78
2711;BME280;20721;47.402;8.550;2023-03-01T06:13:27;96297;;;2.05;56.63
2711;BME280;20721;47.402;8.550;2023-03-01T06:14:27;96294;;;2.13;56.61
2711;BME280;20721;47.402;8.550;2023-03-01T06:15:27;96290;;;2.21;56.43
2711;BME280;20721;47.402;8.550;2023-03-01T06:16:29;96290;;;2.31;56.21
2711;BME280;20721;47.402;8.550;2023-03-01T06:17:29;96293;;;2.41;56.03